createdAt,value
2018-07-30T00:03:20.808Z,27.66
2018-07-30T00:08:24.526Z,27.72
2018-07-30T00:13:28.365Z,27.65
2018-07-30T00:18:32.094Z,27.73
2018-07-30T00:23:35.871Z,27.69
2018-07-30T00:28:39.603Z,27.75
2018-07-30T00:33:43.866Z,27.74
2018-07-30T00:38:47.899Z,27.66
2018-07-30T00:43:51.869Z,27.67
2018-07-30T00:48:55.658Z,27.75
2018-07-30T00:53:59.552Z,27.64
2018-07-30T00:59:03.340Z,27.70
2018-07-30T01:04:07.027Z,27.71
2018-07-30T01:09:11.643Z,27.72
2018-07-30T01:14:16.079Z,27.75
2018-07-30T01:19:19.883Z,27.74
2018-07-30T01:24:23.660Z,27.73
2018-07-30T01:29:27.336Z,27.74
2018-07-30T01:34:31.117Z,27.69
2018-07-30T01:39:35.877Z,27.68
2018-07-30T01:44:39.582Z,27.65
2018-07-30T01:49:43.234Z,27.66
2018-07-30T01:54:46.995Z,27.60
2018-07-30T01:59:50.998Z,27.64
2018-07-30T02:04:54.686Z,27.65
2018-07-30T02:09:58.502Z,27.73
2018-07-30T02:15:05.524Z,27.64
2018-07-30T02:20:09.190Z,27.70
2018-07-30T02:25:12.902Z,27.64
2018-07-30T02:30:16.606Z,27.61
2018-07-30T02:35:20.392Z,27.53
2018-07-30T02:40:24.106Z,27.48
2018-07-30T02:45:27.857Z,27.50
2018-07-30T02:50:31.532Z,27.45
2018-07-30T02:55:35.183Z,27.43
2018-07-30T03:00:38.931Z,27.45
2018-07-30T03:05:43.292Z,27.35
2018-07-30T03:10:47.049Z,27.36
2018-07-30T03:15:50.763Z,27.30
2018-07-30T03:20:54.534Z,27.23
2018-07-30T03:25:59.091Z,27.18
2018-07-30T03:31:02.832Z,27.13
2018-07-30T03:36:06.745Z,27.14
2018-07-30T03:41:11.649Z,27.11
2018-07-30T03:46:16.572Z,26.88
2018-07-30T03:51:20.323Z,26.88
2018-07-30T03:56:24.146Z,26.81
2018-07-30T04:01:27.903Z,26.76
2018-07-30T04:06:32.192Z,26.75
2018-07-30T04:11:35.959Z,25.66
2018-07-30T04:16:45.050Z,25.32
2018-07-30T04:21:48.714Z,25.15
2018-07-30T04:26:52.375Z,25.01
2018-07-30T04:31:56.042Z,24.99
2018-07-30T04:36:59.741Z,24.95
2018-07-30T04:42:03.486Z,24.96
2018-07-30T04:47:07.208Z,24.93
2018-07-30T04:52:10.882Z,25.03
2018-07-30T04:57:14.630Z,25.15
2018-07-30T05:02:18.903Z,25.22
2018-07-30T05:07:22.582Z,25.23
2018-07-30T05:12:26.455Z,25.24
2018-07-30T05:17:31.223Z,25.28
2018-07-30T05:22:35.042Z,25.33
2018-07-30T05:27:38.757Z,25.41
2018-07-30T05:32:42.863Z,25.51
2018-07-30T05:37:46.534Z,25.51
2018-07-30T05:42:50.403Z,25.57
2018-07-30T05:47:53.946Z,25.57
2018-07-30T05:52:57.663Z,25.60
2018-07-30T05:58:02.287Z,25.59
2018-07-30T06:03:06.061Z,25.62
2018-07-30T06:08:09.719Z,25.66
2018-07-30T06:13:13.457Z,25.71
2018-07-30T06:18:17.143Z,25.72
2018-07-30T06:23:20.793Z,25.71
2018-07-30T06:28:24.503Z,25.79
2018-07-30T06:33:28.311Z,25.85
2018-07-30T06:38:32.208Z,25.85
2018-07-30T06:43:35.838Z,25.90
2018-07-30T06:48:39.522Z,25.97
2018-07-30T06:53:43.275Z,25.97
2018-07-30T06:58:46.998Z,26.00
2018-07-30T07:03:50.686Z,26.05
2018-07-30T07:08:54.396Z,26.17
2018-07-30T07:13:58.196Z,26.21
2018-07-30T07:19:02.260Z,26.25
2018-07-30T07:24:06.147Z,26.41
2018-07-30T07:29:09.801Z,26.44
2018-07-30T07:34:13.562Z,26.46
2018-07-30T07:39:17.478Z,26.51
2018-07-30T07:44:21.298Z,26.53
2018-07-30T07:49:24.942Z,26.56
2018-07-30T07:54:29.453Z,26.60
2018-07-30T07:59:33.188Z,26.64
2018-07-30T08:04:36.962Z,26.62
2018-07-30T08:09:41.531Z,26.63
2018-07-30T08:14:45.259Z,26.68
2018-07-30T08:19:48.955Z,26.63
2018-07-30T08:24:52.638Z,26.63
2018-07-30T08:29:56.416Z,26.65
2018-07-30T08:35:00.185Z,26.65
2018-07-30T08:40:06.963Z,26.67
2018-07-30T08:45:10.686Z,26.69
2018-07-30T08:50:14.369Z,26.71
2018-07-30T08:55:18.144Z,26.71
2018-07-30T09:00:21.957Z,26.73
2018-07-30T09:05:25.789Z,26.75
2018-07-30T09:10:29.434Z,26.77
2018-07-30T09:15:33.130Z,26.77
2018-07-30T09:20:37.560Z,26.79
2018-07-30T09:25:41.225Z,26.81
2018-07-30T09:30:45.598Z,26.80
2018-07-30T09:35:50.344Z,26.82
2018-07-30T09:40:54.838Z,26.96
2018-07-30T09:45:58.595Z,26.92
2018-07-30T09:51:02.352Z,26.84
2018-07-30T09:56:07.400Z,26.87
2018-07-30T10:01:16.164Z,26.86
2018-07-30T10:06:20.794Z,26.87
2018-07-30T10:11:24.768Z,26.88
2018-07-30T10:16:28.650Z,26.90
2018-07-30T10:21:32.506Z,26.89
2018-07-30T10:26:36.308Z,26.98
2018-07-30T10:31:40.137Z,26.96
2018-07-30T10:36:43.851Z,26.96
2018-07-30T10:41:48.457Z,26.97
2018-07-30T10:46:53.122Z,27.19
2018-07-30T10:51:57.086Z,27.08
2018-07-30T10:57:02.535Z,27.12
2018-07-30T11:02:08.482Z,27.12
2018-07-30T11:07:13.055Z,27.32
2018-07-30T11:12:17.094Z,27.22
2018-07-30T11:17:21.739Z,27.29
2018-07-30T11:22:26.479Z,27.28
2018-07-30T11:27:31.176Z,27.22
2018-07-30T11:32:35.900Z,27.20
2018-07-30T11:37:40.384Z,27.23
2018-07-30T11:47:58.950Z,27.19
2018-07-30T11:53:04.061Z,27.24
2018-07-30T11:58:10.077Z,27.28
2018-07-30T12:03:14.472Z,27.24
2018-07-30T12:08:25.824Z,27.29
2018-07-30T12:13:29.821Z,27.27
2018-07-30T12:18:33.836Z,27.33
2018-07-30T12:23:37.486Z,27.31
2018-07-30T12:28:41.227Z,27.35
2018-07-30T12:33:45.064Z,27.38
2018-07-30T12:38:48.996Z,27.36
2018-07-30T12:43:52.690Z,27.33
2018-07-30T12:48:56.433Z,27.35
2018-07-30T12:54:00.124Z,27.50
2018-07-30T12:59:03.889Z,27.53
2018-07-30T13:04:08.120Z,27.57
2018-07-30T13:09:11.992Z,27.52
2018-07-30T13:14:15.669Z,27.50
2018-07-30T13:19:19.408Z,27.51
2018-07-30T13:24:23.123Z,27.53
2018-07-30T13:29:26.976Z,27.51
2018-07-30T13:34:30.750Z,27.36
2018-07-30T13:39:34.463Z,27.37
2018-07-30T13:44:38.212Z,27.35
2018-07-30T13:49:41.999Z,27.34
2018-07-30T13:54:45.910Z,27.40
2018-07-30T13:59:49.607Z,27.41
2018-07-30T14:04:54.368Z,27.36
2018-07-30T14:09:58.097Z,27.36
2018-07-30T14:15:15.371Z,27.35
2018-07-30T14:20:19.358Z,27.37
2018-07-30T14:25:23.055Z,27.36
2018-07-30T14:30:27.794Z,27.46
2018-07-30T14:35:31.500Z,27.48
2018-07-30T14:40:35.974Z,27.55
2018-07-30T14:45:39.857Z,27.57
2018-07-30T14:50:43.619Z,27.64
2018-07-30T14:55:47.393Z,27.72
2018-07-30T15:00:51.357Z,27.78
2018-07-30T15:05:55.198Z,27.80
2018-07-30T15:10:58.823Z,27.85
2018-07-30T15:16:02.575Z,27.86
2018-07-30T15:21:07.480Z,27.92
2018-07-30T15:26:11.714Z,27.98
2018-07-30T15:31:16.642Z,28.07
2018-07-30T15:36:20.921Z,28.10
2018-07-30T15:41:24.711Z,28.07
2018-07-30T15:46:28.556Z,28.15
2018-07-30T15:51:32.389Z,28.12
2018-07-30T15:56:36.259Z,28.16
2018-07-30T16:01:40.606Z,28.18
2018-07-30T16:06:44.479Z,28.17
2018-07-30T16:11:48.389Z,28.19
2018-07-30T16:16:52.235Z,28.16
2018-07-30T16:21:55.934Z,28.29
2018-07-30T16:26:59.953Z,28.43
2018-07-30T16:32:04.795Z,28.34
2018-07-30T16:37:08.860Z,28.34
2018-07-30T16:47:26.208Z,28.40
2018-07-30T16:52:30.121Z,28.45
2018-07-30T16:57:34.141Z,28.41
2018-07-30T17:02:38.202Z,28.48
2018-07-30T17:07:43.159Z,28.56
2018-07-30T17:12:47.348Z,28.70
2018-07-30T17:17:51.205Z,28.73
2018-07-30T17:22:55.128Z,28.65
2018-07-30T17:27:58.882Z,28.66
2018-07-30T17:33:02.651Z,28.71
2018-07-30T17:38:06.578Z,28.69
2018-07-30T17:43:10.432Z,28.77
2018-07-30T17:48:14.364Z,28.74
2018-07-30T17:53:18.184Z,28.75
2018-07-30T17:58:22.256Z,28.74
2018-07-30T18:03:26.077Z,28.77
2018-07-30T18:08:30.020Z,28.71
2018-07-30T18:13:34.061Z,28.73
2018-07-30T18:18:38.119Z,28.63
2018-07-30T18:23:41.927Z,28.70
2018-07-30T18:28:45.954Z,28.66
2018-07-30T18:33:50.179Z,28.73
2018-07-30T18:38:54.150Z,28.63
2018-07-30T18:43:59.601Z,28.71
2018-07-30T18:49:03.387Z,28.61
2018-07-30T18:54:07.768Z,28.77
2018-07-30T18:59:12.623Z,28.69
2018-07-30T19:04:20.133Z,28.71
2018-07-30T19:09:34.815Z,28.66
2018-07-30T19:14:39.771Z,28.70
2018-07-30T19:25:07.471Z,28.75
2018-07-30T19:30:12.561Z,28.68
2018-07-30T19:40:47.848Z,28.75
2018-07-30T19:45:54.388Z,28.62
2018-07-30T19:50:59.627Z,28.54
2018-07-30T19:56:03.732Z,28.76
2018-07-30T20:01:08.068Z,28.65
2018-07-30T20:06:12.024Z,28.64
2018-07-30T20:11:16.289Z,28.58
2018-07-30T20:16:20.300Z,28.48
2018-07-30T20:21:26.189Z,28.51
2018-07-30T20:26:30.663Z,28.58
2018-07-30T20:31:34.587Z,28.49
2018-07-30T20:36:38.654Z,28.51
2018-07-30T20:41:42.785Z,28.56
2018-07-30T20:46:47.119Z,28.60
2018-07-30T20:51:50.976Z,28.60
2018-07-30T20:56:54.832Z,28.49
2018-07-30T21:01:58.702Z,28.59
2018-07-30T21:07:02.850Z,28.58
2018-07-30T21:12:07.036Z,28.53
2018-07-30T21:17:10.889Z,28.49
2018-07-30T21:22:14.689Z,28.55
2018-07-30T21:27:18.729Z,28.52
2018-07-30T21:32:22.425Z,28.59
2018-07-30T21:37:26.366Z,28.54
2018-07-30T21:42:30.192Z,28.51
2018-07-30T21:47:34.027Z,28.52
2018-07-30T21:52:37.662Z,28.52
2018-07-30T21:57:41.536Z,28.51
2018-07-30T22:02:45.897Z,28.50
2018-07-30T22:07:50.135Z,28.49
2018-07-30T22:12:55.036Z,28.51
2018-07-30T22:17:58.897Z,28.36
2018-07-30T22:23:02.671Z,28.32
2018-07-30T22:28:07.035Z,28.41
2018-07-30T22:33:10.825Z,28.39
2018-07-30T22:38:14.630Z,28.42
2018-07-30T22:43:18.494Z,28.38
2018-07-30T22:48:22.297Z,28.42
2018-07-30T22:53:26.164Z,28.36
2018-07-30T22:58:29.883Z,28.33
2018-07-30T23:03:33.624Z,28.39
2018-07-30T23:08:37.350Z,28.30
2018-07-30T23:13:41.174Z,28.29
2018-07-30T23:18:44.895Z,28.38
2018-07-30T23:23:48.620Z,28.42
2018-07-30T23:28:52.439Z,28.34
2018-07-30T23:33:56.248Z,28.33
2018-07-30T23:39:00.092Z,28.37
2018-07-30T23:44:04.003Z,28.27
2018-07-30T23:49:07.773Z,28.26
2018-07-30T23:54:12.312Z,28.32
2018-07-30T23:59:15.938Z,28.29
